This is the latest recevied weather packets stored in our database for station/object KD5FHA. If no packets are shown the sender has not sent any weather packets the latest 10 day(s).
| Time | Temp. | Humidity | Pressure | Rain* | Wind** | Luminosity | Snow |
|---|---|---|---|---|---|---|---|
| 1777831386 | 25.56° C | 41% | 1021.2 hPa | 0 mm | - | 932 W/m² | - |
| 1777831081 | 26.67° C | 39% | 1021 hPa | 0 mm | - | 928 W/m² | - |
| 1777830780 | 26.11° C | 42% | 1021.2 hPa | 0 mm | - | 925 W/m² | - |
| 1777830475 | 26.11° C | 43% | 1021.3 hPa | 0 mm | - | 921 W/m² | - |
| 1777830173 | 25.56° C | 43% | 1021.2 hPa | 0 mm | - | 917 W/m² | - |
| 1777829868 | 25° C | 46% | 1021.5 hPa | 0 mm | - | 910 W/m² | - |
| 1777829564 | 25.56° C | 46% | 1021.3 hPa | 0 mm | - | 901 W/m² | - |
| 1777829261 | 25.56° C | 44% | 1021.7 hPa | 0 mm | - | 897 W/m² | - |
| 1777828958 | 25.56° C | 47% | 1021.7 hPa | 0 mm | - | 887 W/m² | - |
| 1777828654 | 25° C | 48% | 1021.8 hPa | 0 mm | - | 882 W/m² | - |
| 1777828352 | 24.44° C | 47% | 1021.8 hPa | 0 mm | - | 871 W/m² | - |
| 1777828049 | 25.56° C | 44% | 1022.1 hPa | 0 mm | - | 868 W/m² | - |
| 1777827746 | 25.56° C | 47% | 1021.9 hPa | 0 mm | - | 856 W/m² | - |
| 1777827443 | 25.56° C | 45% | 1022 hPa | 0 mm | - | 851 W/m² | - |
| 1777827140 | 25.56° C | 48% | 1022.3 hPa | 0 mm | - | 840 W/m² | - |
| 1777826835 | 26.11° C | 44% | 1022.2 hPa | 0 mm | - | 833 W/m² | - |
| 1777826534 | 25.56° C | 45% | 1022.1 hPa | 0 mm | - | 820 W/m² | - |
| 1777826229 | 25° C | 45% | 1022.3 hPa | 0 mm | - | 814 W/m² | - |
| 1777825928 | 25° C | 45% | 1022.3 hPa | 0 mm | - | 802 W/m² | - |
| 1777825624 | 24.44° C | 47% | 1022.3 hPa | 0 mm | - | 790 W/m² | - |
| 1777825323 | 23.89° C | 47% | 1022.2 hPa | 0 mm | - | 778 W/m² | - |
| 1777825019 | 24.44° C | 45% | 1022.4 hPa | 0 mm | - | 763 W/m² | - |
| 1777824714 | 23.89° C | 47% | 1022.5 hPa | 0 mm | - | 753 W/m² | - |
| 1777824412 | 23.33° C | 49% | 1022.5 hPa | 0 mm | - | 739 W/m² | - |
| 1777824107 | 23.89° C | 48% | 1022.3 hPa | 0 mm | - | 723 W/m² | - |
* Rain latest hour (hover to see other rain measurements)
** Current wind speed in m/s (hover to see current wind gust speed)